sensor_id;sensor_type;location;lat;lon;timestamp;pressure;altitude;pressure_sealevel;temperature;humidity
12775;BME280;6451;42.630;23.382;2023-04-22T00:02:19;94051.13;;;14.57;74.63
12775;BME280;6451;42.630;23.382;2023-04-22T00:04:47;94036.91;;;14.41;75.55
12775;BME280;6451;42.630;23.382;2023-04-22T00:07:15;94004.91;;;13.94;76.06
12775;BME280;6451;42.630;23.382;2023-04-22T00:09:42;94056.63;;;14.20;76.56
12775;BME280;6451;42.630;23.382;2023-04-22T00:12:09;94064.34;;;14.55;75.98
12775;BME280;6451;42.630;23.382;2023-04-22T00:14:36;94056.38;;;14.39;76.36
12775;BME280;6451;42.630;23.382;2023-04-22T00:17:03;94061.03;;;14.35;76.61
12775;BME280;6451;42.630;23.382;2023-04-22T00:19:33;94064.44;;;14.25;77.12
12775;BME280;6451;42.630;23.382;2023-04-22T00:22:00;94056.84;;;14.04;77.82
12775;BME280;6451;42.630;23.382;2023-04-22T00:24:26;94028.41;;;13.68;78.80
12775;BME280;6451;42.630;23.382;2023-04-22T00:26:53;93995.31;;;13.70;78.70
12775;BME280;6451;42.630;23.382;2023-04-22T00:29:20;94033.25;;;13.82;80.00
12775;BME280;6451;42.630;23.382;2023-04-22T00:31:47;94056.94;;;13.74;80.34
12775;BME280;6451;42.630;23.382;2023-04-22T00:34:14;94044.19;;;13.85;79.36
12775;BME280;6451;42.630;23.382;2023-04-22T00:36:44;94048.13;;;13.88;79.04
12775;BME280;6451;42.630;23.382;2023-04-22T00:39:11;94032.97;;;13.94;78.82
12775;BME280;6451;42.630;23.382;2023-04-22T00:41:38;94053.00;;;14.09;78.73
12775;BME280;6451;42.630;23.382;2023-04-22T00:44:08;94053.19;;;14.30;77.30
12775;BME280;6451;42.630;23.382;2023-04-22T00:46:37;94051.69;;;14.36;76.96
12775;BME280;6451;42.630;23.382;2023-04-22T00:49:05;94049.91;;;14.51;76.06
12775;BME280;6451;42.630;23.382;2023-04-22T00:51:32;94034.47;;;14.32;76.05
12775;BME280;6451;42.630;23.382;2023-04-22T00:54:00;94027.88;;;14.33;75.79
12775;BME280;6451;42.630;23.382;2023-04-22T00:56:30;94036.88;;;14.37;75.72
12775;BME280;6451;42.630;23.382;2023-04-22T00:58:59;94050.84;;;14.29;76.43
12775;BME280;6451;42.630;23.382;2023-04-22T01:01:26;94037.66;;;14.34;75.92
12775;BME280;6451;42.630;23.382;2023-04-22T01:03:54;94062.53;;;14.29;77.04
12775;BME280;6451;42.630;23.382;2023-04-22T01:06:23;94049.94;;;14.14;76.26
12775;BME280;6451;42.630;23.382;2023-04-22T01:08:51;94077.13;;;14.03;77.63
12775;BME280;6451;42.630;23.382;2023-04-22T01:11:19;94074.53;;;13.80;79.06
12775;BME280;6451;42.630;23.382;2023-04-22T01:13:46;94070.88;;;13.69;79.38
12775;BME280;6451;42.630;23.382;2023-04-22T01:16:13;94009.31;;;13.31;79.16
12775;BME280;6451;42.630;23.382;2023-04-22T01:18:40;94077.66;;;13.82;79.53
12775;BME280;6451;42.630;23.382;2023-04-22T01:21:07;94038.19;;;13.09;81.70
12775;BME280;6451;42.630;23.382;2023-04-22T01:23:36;94078.72;;;13.41;82.09
12775;BME280;6451;42.630;23.382;2023-04-22T01:26:05;94037.25;;;13.24;81.59
12775;BME280;6451;42.630;23.382;2023-04-22T01:28:32;94075.63;;;13.42;81.91
12775;BME280;6451;42.630;23.382;2023-04-22T01:30:59;94071.22;;;13.34;82.20
12775;BME280;6451;42.630;23.382;2023-04-22T01:33:26;94082.66;;;13.43;82.43
12775;BME280;6451;42.630;23.382;2023-04-22T01:35:55;94061.03;;;13.27;82.70
12775;BME280;6451;42.630;23.382;2023-04-22T01:38:23;94050.16;;;13.61;81.44
12775;BME280;6451;42.630;23.382;2023-04-22T01:40:52;94070.66;;;13.81;80.46
12775;BME280;6451;42.630;23.382;2023-04-22T01:43:19;94049.72;;;13.93;79.24
12775;BME280;6451;42.630;23.382;2023-04-22T01:45:46;94022.66;;;13.77;79.37
12775;BME280;6451;42.630;23.382;2023-04-22T01:48:12;94072.31;;;13.93;79.65
12775;BME280;6451;42.630;23.382;2023-04-22T01:50:39;94071.22;;;13.98;79.87
12775;BME280;6451;42.630;23.382;2023-04-22T01:53:07;93976.00;;;13.48;79.43
12775;BME280;6451;42.630;23.382;2023-04-22T01:55:34;94061.69;;;13.81;80.53
12775;BME280;6451;42.630;23.382;2023-04-22T01:58:03;94060.63;;;13.93;80.75
12775;BME280;6451;42.630;23.382;2023-04-22T02:00:31;94068.03;;;13.92;81.02
12775;BME280;6451;42.630;23.382;2023-04-22T02:02:58;94061.06;;;13.98;80.94
12775;BME280;6451;42.630;23.382;2023-04-22T02:05:25;94068.47;;;13.98;80.98
12775;BME280;6451;42.630;23.382;2023-04-22T02:07:52;94068.81;;;13.93;81.42
12775;BME280;6451;42.630;23.382;2023-04-22T02:10:19;94051.56;;;13.85;81.58
12775;BME280;6451;42.630;23.382;2023-04-22T02:12:46;94005.00;;;13.63;81.19
12775;BME280;6451;42.630;23.382;2023-04-22T02:15:14;94073.66;;;14.10;81.11
12775;BME280;6451;42.630;23.382;2023-04-22T02:17:41;94074.09;;;14.15;80.59
12775;BME280;6451;42.630;23.382;2023-04-22T02:20:10;94016.69;;;13.64;80.99
12775;BME280;6451;42.630;23.382;2023-04-22T02:22:39;94011.53;;;13.55;81.16
12775;BME280;6451;42.630;23.382;2023-04-22T02:25:09;94072.00;;;13.98;80.85
12775;BME280;6451;42.630;23.382;2023-04-22T02:27:36;94044.53;;;13.80;80.38
12775;BME280;6451;42.630;23.382;2023-04-22T02:30:04;94065.84;;;13.71;81.03
12775;BME280;6451;42.630;23.382;2023-04-22T02:32:33;93991.53;;;12.80;81.71
12775;BME280;6451;42.630;23.382;2023-04-22T02:35:01;94062.94;;;13.57;81.84
12775;BME280;6451;42.630;23.382;2023-04-22T02:37:29;94072.75;;;13.61;81.36
12775;BME280;6451;42.630;23.382;2023-04-22T02:39:56;94047.19;;;13.73;80.44
12775;BME280;6451;42.630;23.382;2023-04-22T02:42:23;94074.03;;;13.71;80.76
12775;BME280;6451;42.630;23.382;2023-04-22T02:44:50;94072.06;;;14.05;79.61
12775;BME280;6451;42.630;23.382;2023-04-22T02:47:17;94069.56;;;14.27;78.28
12775;BME280;6451;42.630;23.382;2023-04-22T02:49:46;94004.00;;;13.12;80.56
12775;BME280;6451;42.630;23.382;2023-04-22T02:52:12;94081.59;;;13.51;80.72
12775;BME280;6451;42.630;23.382;2023-04-22T02:54:39;94077.38;;;13.57;80.78
12775;BME280;6451;42.630;23.382;2023-04-22T02:57:06;94083.25;;;13.59;80.09
12775;BME280;6451;42.630;23.382;2023-04-22T02:59:33;94059.44;;;13.56;80.16
12775;BME280;6451;42.630;23.382;2023-04-22T03:02:02;94081.28;;;13.94;79.15
12775;BME280;6451;42.630;23.382;2023-04-22T03:04:29;94085.88;;;13.86;79.11
12775;BME280;6451;42.630;23.382;2023-04-22T03:06:58;94066.69;;;13.79;79.43
12775;BME280;6451;42.630;23.382;2023-04-22T03:09:25;94084.69;;;13.83;80.72
12775;BME280;6451;42.630;23.382;2023-04-22T03:11:52;94086.66;;;13.86;79.96
12775;BME280;6451;42.630;23.382;2023-04-22T03:14:19;94062.31;;;13.37;81.12
12775;BME280;6451;42.630;23.382;2023-04-22T03:16:46;94024.06;;;13.00;82.44
12775;BME280;6451;42.630;23.382;2023-04-22T03:19:12;94096.81;;;13.26;83.11
12775;BME280;6451;42.630;23.382;2023-04-22T03:21:40;94092.13;;;13.23;83.32
12775;BME280;6451;42.630;23.382;2023-04-22T03:24:09;94095.50;;;13.16;83.13
12775;BME280;6451;42.630;23.382;2023-04-22T03:26:36;94060.72;;;13.06;83.26
12775;BME280;6451;42.630;23.382;2023-04-22T03:29:03;94104.22;;;13.25;83.68
12775;BME280;6451;42.630;23.382;2023-04-22T03:31:30;94057.69;;;12.85;83.78
12775;BME280;6451;42.630;23.382;2023-04-22T03:33:57;94103.25;;;13.14;84.52
12775;BME280;6451;42.630;23.382;2023-04-22T03:36:23;94106.03;;;12.91;85.45
12775;BME280;6451;42.630;23.382;2023-04-22T03:38:51;94112.25;;;12.92;85.97
12775;BME280;6451;42.630;23.382;2023-04-22T03:41:20;94105.63;;;12.89;86.04
12775;BME280;6451;42.630;23.382;2023-04-22T03:43:47;94112.84;;;13.04;85.87
12775;BME280;6451;42.630;23.382;2023-04-22T03:46:14;94112.41;;;12.76;86.04
12775;BME280;6451;42.630;23.382;2023-04-22T03:48:41;94085.97;;;12.76;85.79
12775;BME280;6451;42.630;23.382;2023-04-22T03:51:08;94079.38;;;12.77;85.29
12775;BME280;6451;42.630;23.382;2023-04-22T03:53:35;94099.84;;;12.45;86.99
12775;BME280;6451;42.630;23.382;2023-04-22T03:56:02;94112.78;;;13.01;84.85
12775;BME280;6451;42.630;23.382;2023-04-22T03:58:31;94105.25;;;12.91;84.05
12775;BME280;6451;42.630;23.382;2023-04-22T04:00:58;94091.56;;;12.87;83.75
12775;BME280;6451;42.630;23.382;2023-04-22T04:03:25;94119.84;;;12.79;84.53
12775;BME280;6451;42.630;23.382;2023-04-22T04:05:53;94087.13;;;12.75;84.08
12775;BME280;6451;42.630;23.382;2023-04-22T04:08:20;94127.81;;;12.91;85.28
12775;BME280;6451;42.630;23.382;2023-04-22T04:10:47;94122.00;;;12.93;84.84
12775;BME280;6451;42.630;23.382;2023-04-22T04:13:13;94097.88;;;12.91;84.06
12775;BME280;6451;42.630;23.382;2023-04-22T04:15:42;94117.66;;;13.15;83.08
12775;BME280;6451;42.630;23.382;2023-04-22T04:18:09;94123.09;;;13.15;83.64
12775;BME280;6451;42.630;23.382;2023-04-22T04:20:36;94117.09;;;13.28;83.54
12775;BME280;6451;42.630;23.382;2023-04-22T04:23:03;94128.91;;;13.36;83.00
12775;BME280;6451;42.630;23.382;2023-04-22T04:25:30;94107.09;;;13.36;81.52
12775;BME280;6451;42.630;23.382;2023-04-22T04:28:02;94104.56;;;13.50;82.71
12775;BME280;6451;42.630;23.382;2023-04-22T04:30:29;94110.91;;;13.61;79.77
12775;BME280;6451;42.630;23.382;2023-04-22T04:32:59;94108.50;;;13.56;80.19
12775;BME280;6451;42.630;23.382;2023-04-22T04:35:31;94123.34;;;13.93;78.65
12775;BME280;6451;42.630;23.382;2023-04-22T04:37:58;94137.66;;;13.82;79.20
12775;BME280;6451;42.630;23.382;2023-04-22T04:40:26;94102.91;;;13.76;78.45
12775;BME280;6451;42.630;23.382;2023-04-22T04:42:54;94142.59;;;14.03;79.67
12775;BME280;6451;42.630;23.382;2023-04-22T04:45:22;94132.69;;;13.88;80.40
12775;BME280;6451;42.630;23.382;2023-04-22T04:47:49;94150.59;;;13.89;80.92
12775;BME280;6451;42.630;23.382;2023-04-22T04:50:18;94151.28;;;14.50;79.86
12775;BME280;6451;42.630;23.382;2023-04-22T04:52:46;94141.47;;;14.45;79.19
12775;BME280;6451;42.630;23.382;2023-04-22T04:55:13;94160.75;;;14.26;79.87
12775;BME280;6451;42.630;23.382;2023-04-22T04:57:40;94148.25;;;14.58;79.19
12775;BME280;6451;42.630;23.382;2023-04-22T05:00:08;94157.25;;;15.07;80.95
12775;BME280;6451;42.630;23.382;2023-04-22T05:02:35;94156.34;;;15.43;79.03
12775;BME280;6451;42.630;23.382;2023-04-22T05:05:02;94149.81;;;15.07;79.49
12775;BME280;6451;42.630;23.382;2023-04-22T05:07:31;94156.56;;;15.20;80.39
12775;BME280;6451;42.630;23.382;2023-04-22T05:09:59;94143.69;;;15.24;79.97
12775;BME280;6451;42.630;23.382;2023-04-22T05:12:26;94152.94;;;14.58;81.54
12775;BME280;6451;42.630;23.382;2023-04-22T05:14:53;94164.78;;;14.76;82.88
12775;BME280;6451;42.630;23.382;2023-04-22T05:17:20;94179.22;;;14.73;82.58
12775;BME280;6451;42.630;23.382;2023-04-22T05:19:47;94178.84;;;14.78;83.19
12775;BME280;6451;42.630;23.382;2023-04-22T05:22:13;94171.03;;;15.21;82.25
12775;BME280;6451;42.630;23.382;2023-04-22T05:24:43;94159.16;;;15.02;81.99
12775;BME280;6451;42.630;23.382;2023-04-22T05:27:10;94168.72;;;15.30;81.74
12775;BME280;6451;42.630;23.382;2023-04-22T05:29:37;94173.81;;;15.28;81.10
12775;BME280;6451;42.630;23.382;2023-04-22T05:32:05;94098.41;;;14.72;81.08
12775;BME280;6451;42.630;23.382;2023-04-22T05:34:32;94171.53;;;15.41;81.72
12775;BME280;6451;42.630;23.382;2023-04-22T05:37:01;94141.00;;;15.28;80.61
12775;BME280;6451;42.630;23.382;2023-04-22T05:39:29;94169.63;;;15.48;80.08
12775;BME280;6451;42.630;23.382;2023-04-22T05:41:57;94174.34;;;15.51;79.64
12775;BME280;6451;42.630;23.382;2023-04-22T05:44:24;94155.34;;;15.18;80.49
12775;BME280;6451;42.630;23.382;2023-04-22T05:46:51;94101.13;;;15.20;78.55
12775;BME280;6451;42.630;23.382;2023-04-22T05:49:18;94177.75;;;15.96;78.46
12775;BME280;6451;42.630;23.382;2023-04-22T05:51:45;94156.72;;;16.22;77.31
12775;BME280;6451;42.630;23.382;2023-04-22T05:54:12;94162.94;;;16.04;77.35
12775;BME280;6451;42.630;23.382;2023-04-22T05:56:39;94166.59;;;16.55;75.58
12775;BME280;6451;42.630;23.382;2023-04-22T05:59:07;94173.69;;;16.70;74.82
12775;BME280;6451;42.630;23.382;2023-04-22T06:01:35;94164.72;;;17.02;74.28
12775;BME280;6451;42.630;23.382;2023-04-22T06:04:02;94167.06;;;17.00;72.77
12775;BME280;6451;42.630;23.382;2023-04-22T06:06:29;94174.50;;;17.24;71.66
12775;BME280;6451;42.630;23.382;2023-04-22T06:08:57;94165.50;;;17.06;72.65
12775;BME280;6451;42.630;23.382;2023-04-22T06:11:24;94176.06;;;16.82;75.23
12775;BME280;6451;42.630;23.382;2023-04-22T06:13:50;94154.16;;;16.97;73.32
12775;BME280;6451;42.630;23.382;2023-04-22T06:16:21;94168.63;;;17.15;72.28
12775;BME280;6451;42.630;23.382;2023-04-22T06:18:49;94168.63;;;17.36;71.57
12775;BME280;6451;42.630;23.382;2023-04-22T06:21:17;94163.09;;;17.68;71.03
12775;BME280;6451;42.630;23.382;2023-04-22T06:23:44;94144.75;;;17.15;71.56
12775;BME280;6451;42.630;23.382;2023-04-22T06:26:12;94178.03;;;17.17;71.33
12775;BME280;6451;42.630;23.382;2023-04-22T06:28:38;94176.88;;;17.36;71.79
12775;BME280;6451;42.630;23.382;2023-04-22T06:31:05;94180.00;;;17.31;70.54
12775;BME280;6451;42.630;23.382;2023-04-22T06:33:34;94160.31;;;16.44;72.94
12775;BME280;6451;42.630;23.382;2023-04-22T06:36:00;94179.59;;;17.15;71.44
12775;BME280;6451;42.630;23.382;2023-04-22T06:38:29;94133.00;;;17.01;70.73
12775;BME280;6451;42.630;23.382;2023-04-22T06:40:57;94172.88;;;17.94;67.86
12775;BME280;6451;42.630;23.382;2023-04-22T06:43:24;94185.88;;;17.72;68.25
12775;BME280;6451;42.630;23.382;2023-04-22T06:45:51;94186.97;;;17.93;68.34
12775;BME280;6451;42.630;23.382;2023-04-22T06:48:18;94158.41;;;17.72;67.22
12775;BME280;6451;42.630;23.382;2023-04-22T06:50:46;94159.03;;;18.16;67.67
12775;BME280;6451;42.630;23.382;2023-04-22T06:53:14;94185.66;;;18.29;66.08
12775;BME280;6451;42.630;23.382;2023-04-22T06:55:41;94152.03;;;18.00;66.88
12775;BME280;6451;42.630;23.382;2023-04-22T06:58:08;94150.25;;;18.49;67.74
12775;BME280;6451;42.630;23.382;2023-04-22T07:00:35;94164.44;;;18.41;66.50
12775;BME280;6451;42.630;23.382;2023-04-22T07:03:02;94179.03;;;18.27;68.33
12775;BME280;6451;42.630;23.382;2023-04-22T07:05:29;94175.09;;;18.24;68.34
12775;BME280;6451;42.630;23.382;2023-04-22T07:07:57;94182.06;;;18.47;67.31
12775;BME280;6451;42.630;23.382;2023-04-22T07:10:25;94166.63;;;18.74;65.74
12775;BME280;6451;42.630;23.382;2023-04-22T07:12:51;94176.03;;;18.77;65.88
12775;BME280;6451;42.630;23.382;2023-04-22T07:15:18;94180.00;;;19.24;65.79
12775;BME280;6451;42.630;23.382;2023-04-22T07:17:45;94166.72;;;19.15;64.45
12775;BME280;6451;42.630;23.382;2023-04-22T07:20:12;94172.84;;;19.37;63.60
12775;BME280;6451;42.630;23.382;2023-04-22T07:22:39;94186.34;;;19.21;63.49
12775;BME280;6451;42.630;23.382;2023-04-22T07:25:08;94153.53;;;18.93;62.83
12775;BME280;6451;42.630;23.382;2023-04-22T07:27:35;94180.88;;;19.14;62.17
12775;BME280;6451;42.630;23.382;2023-04-22T07:30:03;94188.03;;;19.01;63.06
12775;BME280;6451;42.630;23.382;2023-04-22T07:32:30;94194.97;;;18.57;64.00
12775;BME280;6451;42.630;23.382;2023-04-22T07:34:57;94186.28;;;18.62;64.78
12775;BME280;6451;42.630;23.382;2023-04-22T07:37:24;94187.66;;;19.02;63.82
12775;BME280;6451;42.630;23.382;2023-04-22T07:39:50;94188.34;;;19.17;63.79
12775;BME280;6451;42.630;23.382;2023-04-22T07:42:19;94190.44;;;19.47;61.79
12775;BME280;6451;42.630;23.382;2023-04-22T07:44:46;94156.53;;;19.98;60.00
12775;BME280;6451;42.630;23.382;2023-04-22T07:47:12;94186.16;;;19.87;60.91
12775;BME280;6451;42.630;23.382;2023-04-22T07:49:39;94182.91;;;19.55;61.19
12775;BME280;6451;42.630;23.382;2023-04-22T07:52:07;94178.34;;;20.16;59.47
12775;BME280;6451;42.630;23.382;2023-04-22T07:54:34;94178.69;;;20.22;58.96
12775;BME280;6451;42.630;23.382;2023-04-22T07:57:01;94176.22;;;20.65;58.41
12775;BME280;6451;42.630;23.382;2023-04-22T07:59:29;94170.97;;;20.74;56.37
12775;BME280;6451;42.630;23.382;2023-04-22T08:01:56;94166.84;;;20.59;56.00
12775;BME280;6451;42.630;23.382;2023-04-22T08:04:23;94147.13;;;19.96;56.07
12775;BME280;6451;42.630;23.382;2023-04-22T08:06:50;94167.34;;;20.16;55.79
12775;BME280;6451;42.630;23.382;2023-04-22T08:09:17;94159.22;;;20.06;55.98
12775;BME280;6451;42.630;23.382;2023-04-22T08:11:44;94172.31;;;19.94;56.54
12775;BME280;6451;42.630;23.382;2023-04-22T08:14:11;94154.41;;;19.79;57.13
12775;BME280;6451;42.630;23.382;2023-04-22T08:16:40;94170.75;;;20.27;56.46
12775;BME280;6451;42.630;23.382;2023-04-22T08:19:07;94168.41;;;20.60;56.35
12775;BME280;6451;42.630;23.382;2023-04-22T08:21:34;94165.94;;;20.35;55.26
12775;BME280;6451;42.630;23.382;2023-04-22T08:24:01;94181.06;;;19.41;56.15
12775;BME280;6451;42.630;23.382;2023-04-22T08:26:28;94171.34;;;19.74;56.25
12775;BME280;6451;42.630;23.382;2023-04-22T08:28:55;94176.22;;;19.56;57.05
12775;BME280;6451;42.630;23.382;2023-04-22T08:31:22;94163.50;;;20.10;56.77
12775;BME280;6451;42.630;23.382;2023-04-22T08:33:50;94151.13;;;20.56;55.57
12775;BME280;6451;42.630;23.382;2023-04-22T08:36:17;94158.47;;;20.02;56.12
12775;BME280;6451;42.630;23.382;2023-04-22T08:38:47;94151.25;;;20.45;55.63
12775;BME280;6451;42.630;23.382;2023-04-22T08:41:14;94150.25;;;20.90;53.94
12775;BME280;6451;42.630;23.382;2023-04-22T08:43:43;94144.41;;;21.11;53.59
12775;BME280;6451;42.630;23.382;2023-04-22T08:46:11;94142.72;;;20.67;53.90
12775;BME280;6451;42.630;23.382;2023-04-22T08:48:40;94142.69;;;20.70;53.44
12775;BME280;6451;42.630;23.382;2023-04-22T08:51:08;94136.97;;;21.08;52.10
12775;BME280;6451;42.630;23.382;2023-04-22T08:53:36;94127.72;;;20.37;52.49
12775;BME280;6451;42.630;23.382;2023-04-22T08:56:04;94135.53;;;20.42;52.21
12775;BME280;6451;42.630;23.382;2023-04-22T08:58:33;94127.63;;;21.02;51.29
12775;BME280;6451;42.630;23.382;2023-04-22T09:01:00;94125.38;;;20.93;51.94
12775;BME280;6451;42.630;23.382;2023-04-22T09:03:27;94127.31;;;20.96;51.68
12775;BME280;6451;42.630;23.382;2023-04-22T09:05:56;94122.75;;;20.86;52.26
12775;BME280;6451;42.630;23.382;2023-04-22T09:08:25;94126.72;;;21.08;51.17
12775;BME280;6451;42.630;23.382;2023-04-22T09:10:52;94127.69;;;20.41;51.52
12775;BME280;6451;42.630;23.382;2023-04-22T09:13:20;94119.25;;;20.24;52.06
12775;BME280;6451;42.630;23.382;2023-04-22T09:15:47;94129.22;;;20.99;51.76
12775;BME280;6451;42.630;23.382;2023-04-22T09:18:16;94103.19;;;20.16;51.38
12775;BME280;6451;42.630;23.382;2023-04-22T09:20:42;94115.44;;;20.45;49.38
12775;BME280;6451;42.630;23.382;2023-04-22T09:23:11;94092.47;;;20.25;49.34
12775;BME280;6451;42.630;23.382;2023-04-22T09:25:41;94106.78;;;20.97;48.82
12775;BME280;6451;42.630;23.382;2023-04-22T09:28:11;94102.19;;;21.14;47.58
12775;BME280;6451;42.630;23.382;2023-04-22T09:30:38;94109.72;;;22.00;46.56
12775;BME280;6451;42.630;23.382;2023-04-22T09:33:06;94110.06;;;21.39;47.43
12775;BME280;6451;42.630;23.382;2023-04-22T09:35:34;94106.56;;;20.88;47.83
12775;BME280;6451;42.630;23.382;2023-04-22T09:38:03;94095.91;;;21.80;46.68
12775;BME280;6451;42.630;23.382;2023-04-22T09:40:31;94094.97;;;22.10;44.77
12775;BME280;6451;42.630;23.382;2023-04-22T09:43:02;94083.50;;;21.69;44.47
12775;BME280;6451;42.630;23.382;2023-04-22T09:45:31;94095.38;;;22.81;43.86
12775;BME280;6451;42.630;23.382;2023-04-22T09:48:01;94078.16;;;22.93;43.20
12775;BME280;6451;42.630;23.382;2023-04-22T09:50:29;94095.44;;;21.62;44.02
12775;BME280;6451;42.630;23.382;2023-04-22T09:53:00;94092.78;;;21.12;43.71
12775;BME280;6451;42.630;23.382;2023-04-22T09:55:29;94096.97;;;20.69;42.93
12775;BME280;6451;42.630;23.382;2023-04-22T09:57:56;94098.59;;;20.94;43.93
12775;BME280;6451;42.630;23.382;2023-04-22T10:00:28;94102.38;;;21.27;44.82
12775;BME280;6451;42.630;23.382;2023-04-22T10:02:55;94095.09;;;21.13;43.01
12775;BME280;6451;42.630;23.382;2023-04-22T10:05:22;94091.38;;;21.70;42.47
12775;BME280;6451;42.630;23.382;2023-04-22T10:07:50;94115.91;;;20.94;46.72
12775;BME280;6451;42.630;23.382;2023-04-22T10:10:17;94118.97;;;19.81;50.07
12775;BME280;6451;42.630;23.382;2023-04-22T10:12:46;94113.94;;;19.73;48.65
12775;BME280;6451;42.630;23.382;2023-04-22T10:15:12;94089.41;;;18.47;48.71
12775;BME280;6451;42.630;23.382;2023-04-22T10:17:41;94108.81;;;18.88;47.88
12775;BME280;6451;42.630;23.382;2023-04-22T10:20:15;94098.38;;;19.14;47.24
12775;BME280;6451;42.630;23.382;2023-04-22T10:22:43;94083.22;;;19.36;45.10
12775;BME280;6451;42.630;23.382;2023-04-22T10:25:11;94098.69;;;19.64;44.93
12775;BME280;6451;42.630;23.382;2023-04-22T10:27:39;94085.28;;;20.00;45.00
12775;BME280;6451;42.630;23.382;2023-04-22T10:30:08;94108.19;;;19.56;44.15
12775;BME280;6451;42.630;23.382;2023-04-22T10:32:36;94100.59;;;19.71;42.38
12775;BME280;6451;42.630;23.382;2023-04-22T10:35:09;94090.84;;;20.27;43.49
12775;BME280;6451;42.630;23.382;2023-04-22T10:37:40;94093.50;;;20.35;43.43
12775;BME280;6451;42.630;23.382;2023-04-22T10:40:09;94087.69;;;19.98;42.51
12775;BME280;6451;42.630;23.382;2023-04-22T10:42:41;94089.03;;;20.17;44.17
12775;BME280;6451;42.630;23.382;2023-04-22T10:45:11;94093.16;;;20.33;45.61
12775;BME280;6451;42.630;23.382;2023-04-22T10:47:40;94085.97;;;20.08;45.23
12775;BME280;6451;42.630;23.382;2023-04-22T10:50:15;94090.53;;;20.52;44.81
12775;BME280;6451;42.630;23.382;2023-04-22T10:52:44;94097.66;;;20.50;43.16
12775;BME280;6451;42.630;23.382;2023-04-22T10:55:12;94084.09;;;20.32;43.39
12775;BME280;6451;42.630;23.382;2023-04-22T10:57:41;94086.25;;;21.02;42.81
12775;BME280;6451;42.630;23.382;2023-04-22T11:00:27;94082.97;;;21.54;41.61
12775;BME280;6451;42.630;23.382;2023-04-22T11:03:07;94088.56;;;21.03;42.78
12775;BME280;6451;42.630;23.382;2023-04-22T11:05:36;94086.84;;;21.13;43.30
12775;BME280;6451;42.630;23.382;2023-04-22T11:08:05;94076.13;;;21.42;42.40
12775;BME280;6451;42.630;23.382;2023-04-22T11:10:34;94069.88;;;21.38;42.63
12775;BME280;6451;42.630;23.382;2023-04-22T11:13:06;94069.00;;;21.64;40.79
12775;BME280;6451;42.630;23.382;2023-04-22T11:15:34;94077.78;;;21.79;40.93
12775;BME280;6451;42.630;23.382;2023-04-22T11:18:02;94090.38;;;21.37;40.39
12775;BME280;6451;42.630;23.382;2023-04-22T11:20:29;94071.66;;;21.48;40.11
12775;BME280;6451;42.630;23.382;2023-04-22T11:22:57;94070.34;;;20.86;39.58
12775;BME280;6451;42.630;23.382;2023-04-22T11:25:25;94086.56;;;20.80;40.39
12775;BME280;6451;42.630;23.382;2023-04-22T11:27:52;94085.38;;;20.24;41.04
12775;BME280;6451;42.630;23.382;2023-04-22T11:30:21;94072.69;;;20.03;41.18
12775;BME280;6451;42.630;23.382;2023-04-22T11:32:49;94103.94;;;20.20;41.92
12775;BME280;6451;42.630;23.382;2023-04-22T11:35:18;94096.22;;;20.38;42.91
12775;BME280;6451;42.630;23.382;2023-04-22T11:37:47;94108.63;;;19.51;43.80
12775;BME280;6451;42.630;23.382;2023-04-22T11:40:17;94106.78;;;19.41;44.27
12775;BME280;6451;42.630;23.382;2023-04-22T11:42:45;94099.66;;;19.43;45.08
12775;BME280;6451;42.630;23.382;2023-04-22T11:45:11;94102.47;;;19.78;44.20
12775;BME280;6451;42.630;23.382;2023-04-22T11:47:39;94085.69;;;19.99;43.94
12775;BME280;6451;42.630;23.382;2023-04-22T11:50:08;94111.75;;;20.25;44.25
12775;BME280;6451;42.630;23.382;2023-04-22T11:52:47;94106.84;;;20.09;45.47
12775;BME280;6451;42.630;23.382;2023-04-22T11:55:19;94118.56;;;20.17;45.93
12775;BME280;6451;42.630;23.382;2023-04-22T11:57:52;94102.03;;;19.83;45.37
12775;BME280;6451;42.630;23.382;2023-04-22T12:00:20;94117.34;;;19.84;46.21
12775;BME280;6451;42.630;23.382;2023-04-22T12:02:57;94099.88;;;19.97;44.41
12775;BME280;6451;42.630;23.382;2023-04-22T12:05:33;94126.13;;;20.40;43.60
12775;BME280;6451;42.630;23.382;2023-04-22T12:08:01;94111.47;;;20.46;43.22
12775;BME280;6451;42.630;23.382;2023-04-22T12:10:29;94117.91;;;20.36;45.13
12775;BME280;6451;42.630;23.382;2023-04-22T12:12:56;94139.22;;;19.98;45.44
12775;BME280;6451;42.630;23.382;2023-04-22T12:15:25;94124.53;;;19.33;46.88
12775;BME280;6451;42.630;23.382;2023-04-22T12:17:52;94118.03;;;19.54;47.20
12775;BME280;6451;42.630;23.382;2023-04-22T12:20:20;94140.28;;;19.32;47.87
12775;BME280;6451;42.630;23.382;2023-04-22T12:22:47;94123.22;;;19.86;47.28
12775;BME280;6451;42.630;23.382;2023-04-22T12:25:18;94122.34;;;19.96;47.90
12775;BME280;6451;42.630;23.382;2023-04-22T12:27:46;94135.22;;;19.24;48.30
12775;BME280;6451;42.630;23.382;2023-04-22T12:30:13;94121.47;;;19.24;48.34
12775;BME280;6451;42.630;23.382;2023-04-22T12:32:41;94129.75;;;19.65;48.21
12775;BME280;6451;42.630;23.382;2023-04-22T12:35:08;94141.25;;;19.53;47.63
12775;BME280;6451;42.630;23.382;2023-04-22T12:37:35;94115.44;;;20.45;46.63
12775;BME280;6451;42.630;23.382;2023-04-22T12:40:03;94139.28;;;19.94;45.92
12775;BME280;6451;42.630;23.382;2023-04-22T12:42:31;94127.19;;;20.19;45.33
12775;BME280;6451;42.630;23.382;2023-04-22T12:44:59;94112.63;;;19.84;46.46
12775;BME280;6451;42.630;23.382;2023-04-22T12:47:26;94151.50;;;19.00;49.86
12775;BME280;6451;42.630;23.382;2023-04-22T12:49:53;94148.44;;;18.95;48.99
12775;BME280;6451;42.630;23.382;2023-04-22T12:52:20;94131.31;;;19.25;47.83
12775;BME280;6451;42.630;23.382;2023-04-22T12:54:47;94113.72;;;19.11;48.84
12775;BME280;6451;42.630;23.382;2023-04-22T12:57:14;94119.66;;;19.89;48.39
12775;BME280;6451;42.630;23.382;2023-04-22T12:59:41;94122.78;;;20.25;48.66
12775;BME280;6451;42.630;23.382;2023-04-22T13:02:11;94122.00;;;20.24;49.90
12775;BME280;6451;42.630;23.382;2023-04-22T13:04:38;94106.50;;;20.34;50.01